SAS42C ENBR-ENZV
Flight info
| Callsign | SAS42C |
|---|---|
| Flight time | 0h 29m |
| Altitude | 17000 |
| Route | BEGOD |
| Aircraft | A20N/M-SDE2E3FGHIRWXY/LB1 |
Departure
| Time | 2026-04-29 18:52 |
|---|---|
| Airport | Bergen Airport, Flesland (ENBR) |
Arrival
| Time | 2026-04-29 19:22 |
|---|---|
| Airport | Stavanger Airport, Sola (ENZV) |
| Time | Latitude | Longitude | Altitude | Speed | Heading |
|---|---|---|---|---|---|
| 2026-04-29 18:36 | 60.28740 | 5.22911 | 173 ft | 0 kts | 80° |
| 2026-04-29 18:42 | 60.28737 | 5.22871 | 173 ft | 4 kts | 80° |
| 2026-04-29 18:42 | 60.28732 | 5.22817 | 173 ft | 4 kts | 80° |
| 2026-04-29 18:43 | 60.28728 | 5.22764 | 172 ft | 4 kts | 80° |
| 2026-04-29 18:43 | 60.28726 | 5.22745 | 171 ft | 0 kts | 80° |
| 2026-04-29 18:47 | 60.28726 | 5.22751 | 171 ft | 0 kts | 98° |
| 2026-04-29 18:47 | 60.28722 | 5.22754 | 171 ft | 0 kts | 133° |
| 2026-04-29 18:47 | 60.28719 | 5.22753 | 171 ft | 0 kts | 167° |
| 2026-04-29 18:47 | 60.28715 | 5.22743 | 171 ft | 1 kts | 228° |
| 2026-04-29 18:48 | 60.28714 | 5.22691 | 170 ft | 8 kts | 268° |
| 2026-04-29 18:48 | 60.28700 | 5.22513 | 166 ft | 17 kts | 250° |
| 2026-04-29 18:48 | 60.28626 | 5.22366 | 165 ft | 17 kts | 180° |
| 2026-04-29 18:48 | 60.28482 | 5.22424 | 163 ft | 24 kts | 170° |
| 2026-04-29 18:49 | 60.28312 | 5.22481 | 157 ft | 27 kts | 170° |
| 2026-04-29 18:49 | 60.28133 | 5.22547 | 151 ft | 18 kts | 169° |
| 2026-04-29 18:49 | 60.28057 | 5.22455 | 151 ft | 0 kts | 245° |
| 2026-04-29 18:50 | 60.28055 | 5.22446 | 151 ft | 4 kts | 245° |
| 2026-04-29 18:50 | 60.28046 | 5.22332 | 150 ft | 12 kts | 275° |
| 2026-04-29 18:51 | 60.28109 | 5.22231 | 150 ft | 14 kts | 347° |
| 2026-04-29 18:51 | 60.28193 | 5.22203 | 151 ft | 0 kts | 351° |
| 2026-04-29 18:51 | 60.28240 | 5.22187 | 154 ft | 37 kts | 350° |
| 2026-04-29 18:51 | 60.28796 | 5.21986 | 162 ft | 123 kts | 352° |
| 2026-04-29 18:52 | 60.29841 | 5.21635 | 420 ft | 163 kts | 349° |
| 2026-04-29 18:52 | 60.30975 | 5.21205 | 1202 ft | 173 kts | 348° |
| 2026-04-29 18:52 | 60.32187 | 5.20657 | 2050 ft | 183 kts | 346° |
| 2026-04-29 18:52 | 60.33452 | 5.20057 | 2912 ft | 190 kts | 349° |
| 2026-04-29 18:53 | 60.34763 | 5.19540 | 3752 ft | 193 kts | 338° |
| 2026-04-29 18:53 | 60.35769 | 5.17823 | 4596 ft | 193 kts | 301° |
| 2026-04-29 18:53 | 60.36041 | 5.15223 | 5437 ft | 193 kts | 264° |
| 2026-04-29 18:53 | 60.35457 | 5.12827 | 6262 ft | 194 kts | 226° |
| 2026-04-29 18:54 | 60.34267 | 5.11675 | 7084 ft | 192 kts | 187° |
| 2026-04-29 18:54 | 60.32960 | 5.11794 | 7872 ft | 184 kts | 176° |
| 2026-04-29 18:54 | 60.31722 | 5.12012 | 8671 ft | 174 kts | 178° |
| 2026-04-29 18:54 | 60.30577 | 5.12168 | 9444 ft | 160 kts | 180° |
| 2026-04-29 18:55 | 60.29347 | 5.12269 | 9803 ft | 205 kts | 180° |
| 2026-04-29 18:55 | 60.27688 | 5.12366 | 10027 ft | 265 kts | 181° |
| 2026-04-29 18:55 | 60.25771 | 5.12406 | 10253 ft | 286 kts | 181° |
| 2026-04-29 18:55 | 60.23726 | 5.12434 | 10455 ft | 298 kts | 181° |
| 2026-04-29 18:56 | 60.21619 | 5.12468 | 10654 ft | 314 kts | 181° |
| 2026-04-29 18:56 | 60.19328 | 5.12506 | 10856 ft | 341 kts | 181° |
| 2026-04-29 18:56 | 60.16923 | 5.12556 | 11050 ft | 348 kts | 181° |
| 2026-04-29 18:56 | 60.14496 | 5.12616 | 11250 ft | 350 kts | 181° |
| 2026-04-29 18:57 | 60.12079 | 5.12675 | 11439 ft | 351 kts | 181° |
| 2026-04-29 18:57 | 60.09630 | 5.12732 | 11808 ft | 354 kts | 181° |
| 2026-04-29 18:57 | 60.07154 | 5.12786 | 12308 ft | 357 kts | 181° |
| 2026-04-29 18:57 | 60.04650 | 5.12836 | 12818 ft | 361 kts | 180° |
| 2026-04-29 18:58 | 60.02124 | 5.12888 | 13345 ft | 365 kts | 180° |
| 2026-04-29 18:58 | 59.99566 | 5.12942 | 13862 ft | 369 kts | 180° |
| 2026-04-29 18:58 | 59.96983 | 5.12998 | 14382 ft | 373 kts | 180° |
| 2026-04-29 18:58 | 59.94374 | 5.13055 | 14856 ft | 376 kts | 180° |
| 2026-04-29 18:59 | 59.91748 | 5.13113 | 15339 ft | 378 kts | 180° |
| 2026-04-29 18:59 | 59.89109 | 5.13172 | 15829 ft | 381 kts | 180° |
| 2026-04-29 18:59 | 59.86480 | 5.13230 | 16320 ft | 383 kts | 180° |
| 2026-04-29 18:59 | 59.83803 | 5.13289 | 16825 ft | 386 kts | 180° |
| 2026-04-29 19:00 | 59.81101 | 5.13348 | 17289 ft | 390 kts | 180° |
| 2026-04-29 19:00 | 59.78381 | 5.13487 | 17447 ft | 391 kts | 176° |
| 2026-04-29 19:00 | 59.75666 | 5.13929 | 17492 ft | 390 kts | 175° |
| 2026-04-29 19:00 | 59.72962 | 5.14381 | 17492 ft | 390 kts | 175° |
| 2026-04-29 19:01 | 59.70281 | 5.14827 | 17494 ft | 390 kts | 175° |
| 2026-04-29 19:01 | 59.67600 | 5.15270 | 17491 ft | 390 kts | 175° |
| 2026-04-29 19:01 | 59.64914 | 5.15711 | 17491 ft | 390 kts | 175° |
| 2026-04-29 19:01 | 59.62207 | 5.16153 | 17489 ft | 390 kts | 175° |
| 2026-04-29 19:02 | 59.59500 | 5.16599 | 17479 ft | 390 kts | 175° |
| 2026-04-29 19:02 | 59.57714 | 5.16895 | 17341 ft | 390 kts | 175° |
| 2026-04-29 19:02 | 59.54124 | 5.17487 | 17006 ft | 387 kts | 175° |
| 2026-04-29 19:02 | 59.51457 | 5.17926 | 16837 ft | 380 kts | 175° |
| 2026-04-29 19:03 | 59.48872 | 5.18350 | 16700 ft | 365 kts | 175° |
| 2026-04-29 19:03 | 59.46396 | 5.18753 | 16556 ft | 350 kts | 175° |
| 2026-04-29 19:03 | 59.44018 | 5.19140 | 16411 ft | 335 kts | 175° |
| 2026-04-29 19:03 | 59.41736 | 5.19512 | 16278 ft | 321 kts | 175° |
| 2026-04-29 19:04 | 59.39576 | 5.19864 | 16169 ft | 308 kts | 175° |
| 2026-04-29 19:04 | 59.37477 | 5.20206 | 16005 ft | 298 kts | 175° |
| 2026-04-29 19:04 | 59.35434 | 5.20539 | 15748 ft | 293 kts | 175° |
| 2026-04-29 19:04 | 59.33384 | 5.20873 | 15502 ft | 297 kts | 175° |
| 2026-04-29 19:05 | 59.31352 | 5.21204 | 15262 ft | 293 kts | 175° |
| 2026-04-29 19:05 | 59.29318 | 5.21534 | 15022 ft | 294 kts | 175° |
| 2026-04-29 19:05 | 59.27290 | 5.21862 | 14788 ft | 291 kts | 175° |
| 2026-04-29 19:05 | 59.25269 | 5.22189 | 14545 ft | 291 kts | 175° |
| 2026-04-29 19:06 | 59.23255 | 5.22514 | 14305 ft | 290 kts | 174° |
| 2026-04-29 19:06 | 59.21253 | 5.22838 | 14046 ft | 288 kts | 175° |
| 2026-04-29 19:06 | 59.17290 | 5.23474 | 13508 ft | 283 kts | 174° |
| 2026-04-29 19:07 | 59.15323 | 5.23840 | 13242 ft | 283 kts | 168° |
| 2026-04-29 19:07 | 59.14100 | 5.24645 | 13079 ft | 279 kts | 149° |
| 2026-04-29 19:07 | 59.12327 | 5.28114 | 12724 ft | 270 kts | 112° |
| 2026-04-29 19:07 | 59.11807 | 5.31572 | 12316 ft | 264 kts | 96° |
| 2026-04-29 19:08 | 59.11582 | 5.35104 | 11902 ft | 263 kts | 92° |
| 2026-04-29 19:08 | 59.11393 | 5.38607 | 11486 ft | 266 kts | 94° |
| 2026-04-29 19:08 | 59.11157 | 5.42168 | 11052 ft | 262 kts | 95° |
| 2026-04-29 19:08 | 59.10881 | 5.45628 | 10652 ft | 256 kts | 97° |
| 2026-04-29 19:09 | 59.10582 | 5.49015 | 10235 ft | 252 kts | 97° |
| 2026-04-29 19:09 | 59.10273 | 5.52388 | 9791 ft | 253 kts | 98° |
| 2026-04-29 19:09 | 59.09960 | 5.55723 | 9347 ft | 249 kts | 98° |
| 2026-04-29 19:09 | 59.09647 | 5.59042 | 8917 ft | 249 kts | 98° |
| 2026-04-29 19:10 | 59.09336 | 5.62345 | 8486 ft | 246 kts | 98° |
| 2026-04-29 19:10 | 59.09042 | 5.65449 | 8082 ft | 245 kts | 98° |
| 2026-04-29 19:10 | 59.08719 | 5.68861 | 7646 ft | 244 kts | 98° |
| 2026-04-29 19:10 | 59.08412 | 5.72093 | 7241 ft | 244 kts | 98° |
| 2026-04-29 19:11 | 59.08106 | 5.75312 | 6842 ft | 247 kts | 98° |
| 2026-04-29 19:11 | 59.07789 | 5.78635 | 6403 ft | 250 kts | 99° |
| 2026-04-29 19:11 | 59.07471 | 5.81964 | 6086 ft | 248 kts | 98° |
| 2026-04-29 19:11 | 59.07163 | 5.85152 | 6005 ft | 237 kts | 98° |
| 2026-04-29 19:12 | 59.06857 | 5.88319 | 5994 ft | 241 kts | 98° |
| 2026-04-29 19:12 | 59.06551 | 5.91497 | 5987 ft | 238 kts | 98° |
| 2026-04-29 19:12 | 59.06245 | 5.94662 | 5990 ft | 239 kts | 98° |
| 2026-04-29 19:12 | 59.06042 | 5.96764 | 5962 ft | 239 kts | 98° |
| 2026-04-29 19:13 | 59.05632 | 6.01003 | 5797 ft | 238 kts | 98° |
| 2026-04-29 19:13 | 59.05324 | 6.04166 | 5676 ft | 238 kts | 98° |
| 2026-04-29 19:13 | 59.05018 | 6.07310 | 5533 ft | 237 kts | 98° |
| 2026-04-29 19:13 | 59.04736 | 6.10460 | 5443 ft | 237 kts | 97° |
| 2026-04-29 19:14 | 59.04467 | 6.13569 | 5338 ft | 236 kts | 97° |
| 2026-04-29 19:14 | 59.04114 | 6.16695 | 5229 ft | 238 kts | 106° |
| 2026-04-29 19:14 | 59.03280 | 6.19452 | 5107 ft | 240 kts | 134° |
| 2026-04-29 19:14 | 59.01834 | 6.21047 | 5003 ft | 243 kts | 166° |
| 2026-04-29 19:15 | 59.00167 | 6.20964 | 4989 ft | 242 kts | 199° |
| 2026-04-29 19:15 | 58.98687 | 6.19446 | 4992 ft | 242 kts | 215° |
| 2026-04-29 19:15 | 58.97315 | 6.17568 | 4988 ft | 239 kts | 218° |
| 2026-04-29 19:15 | 58.95961 | 6.15671 | 4985 ft | 240 kts | 217° |
| 2026-04-29 19:16 | 58.94595 | 6.13818 | 4808 ft | 241 kts | 216° |
| 2026-04-29 19:16 | 58.93203 | 6.11996 | 4549 ft | 240 kts | 215° |
| 2026-04-29 19:16 | 58.91832 | 6.10246 | 4493 ft | 239 kts | 214° |
| 2026-04-29 19:16 | 58.90453 | 6.08506 | 4496 ft | 237 kts | 214° |
| 2026-04-29 19:17 | 58.89061 | 6.06759 | 4469 ft | 238 kts | 214° |
| 2026-04-29 19:17 | 58.87697 | 6.04925 | 4280 ft | 239 kts | 218° |
| 2026-04-29 19:17 | 58.86355 | 6.03011 | 4001 ft | 239 kts | 218° |
| 2026-04-29 19:17 | 58.85034 | 6.01124 | 3720 ft | 233 kts | 218° |
| 2026-04-29 19:18 | 58.83737 | 5.99238 | 3374 ft | 236 kts | 224° |
| 2026-04-29 19:18 | 58.83061 | 5.97617 | 3183 ft | 231 kts | 246° |
| 2026-04-29 19:18 | 58.82839 | 5.93665 | 3047 ft | 223 kts | 285° |
| 2026-04-29 19:18 | 58.83282 | 5.90835 | 2977 ft | 216 kts | 292° |
| 2026-04-29 19:19 | 58.83796 | 5.88156 | 2741 ft | 219 kts | 294° |
| 2026-04-29 19:19 | 58.84297 | 5.85458 | 2574 ft | 198 kts | 293° |
| 2026-04-29 19:19 | 58.84724 | 5.82977 | 2533 ft | 197 kts | 292° |
| 2026-04-29 19:19 | 58.85136 | 5.80454 | 2490 ft | 197 kts | 291° |
| 2026-04-29 19:20 | 58.85527 | 5.77959 | 2264 ft | 191 kts | 290° |
| 2026-04-29 19:20 | 58.85901 | 5.75528 | 1666 ft | 184 kts | 290° |
| 2026-04-29 19:20 | 58.86234 | 5.73309 | 1423 ft | 161 kts | 291° |
| 2026-04-29 19:20 | 58.86528 | 5.71319 | 1092 ft | 146 kts | 291° |
| 2026-04-29 19:21 | 58.86809 | 5.69491 | 941 ft | 150 kts | 291° |
| 2026-04-29 19:21 | 58.87113 | 5.67575 | 645 ft | 147 kts | 289° |
| 2026-04-29 19:21 | 58.87393 | 5.65717 | 299 ft | 141 kts | 287° |
| 2026-04-29 19:21 | 58.87663 | 5.63887 | 51 ft | 137 kts | 286° |
| 2026-04-29 19:22 | 58.87843 | 5.62736 | 27 ft | 30 kts | 285° |
| 2026-04-29 19:22 | 58.87903 | 5.62513 | 26 ft | 16 kts | 346° |
| 2026-04-29 19:22 | 58.88001 | 5.62583 | 24 ft | 8 kts | 62° |
| 2026-04-29 19:22 | 58.88040 | 5.62658 | 27 ft | 11 kts | 18° |
| 2026-04-29 19:23 | 58.88057 | 5.62667 | 28 ft | 2 kts | 16° |
| 2026-04-29 19:23 | 58.88081 | 5.62681 | 27 ft | 0 kts | 16° |
| 2026-04-29 19:23 | 58.88083 | 5.62682 | 27 ft | 0 kts | 16° |